Schedule Details


Flight Number: CTN491
Departure: Krk Island (LDRI) at 15:45
Arrival: Franjo Tudman (LDZA) at 16:20
Route: KULEN M986 KOTOR

Weather Information
LDRI 161800Z 06003KT 9999 SCT050 05/M02 Q1019
LDZA 162330Z VRB02KT CAVOK M03/M05 Q1020 NOSIG
Schedule Frequency

Route Map